sensor_id;sensor_type;location;lat;lon;timestamp;temperature;humidity
18456;DHT22;9357;49.900;8.208;2023-08-30T00:00:40;17.00;99.90
18456;DHT22;9357;49.900;8.208;2023-08-30T00:02:13;17.00;99.90
18456;DHT22;9357;49.900;8.208;2023-08-30T00:03:46;17.00;99.90
18456;DHT22;9357;49.900;8.208;2023-08-30T00:05:17;17.00;99.90
18456;DHT22;9357;49.900;8.208;2023-08-30T00:06:50;17.00;99.90
18456;DHT22;9357;49.900;8.208;2023-08-30T00:08:23;17.00;99.90
18456;DHT22;9357;49.900;8.208;2023-08-30T00:09:57;17.00;99.90
18456;DHT22;9357;49.900;8.208;2023-08-30T00:11:29;17.00;99.90
18456;DHT22;9357;49.900;8.208;2023-08-30T00:13:03;17.00;99.90
18456;DHT22;9357;49.900;8.208;2023-08-30T00:14:36;17.00;99.90
18456;DHT22;9357;49.900;8.208;2023-08-30T00:16:08;17.00;99.90
18456;DHT22;9357;49.900;8.208;2023-08-30T00:17:40;17.00;99.90
18456;DHT22;9357;49.900;8.208;2023-08-30T00:19:12;17.00;99.90
18456;DHT22;9357;49.900;8.208;2023-08-30T00:20:45;17.00;99.90
18456;DHT22;9357;49.900;8.208;2023-08-30T00:22:17;17.00;99.90
18456;DHT22;9357;49.900;8.208;2023-08-30T00:23:51;17.00;99.90
18456;DHT22;9357;49.900;8.208;2023-08-30T00:25:23;17.00;99.90
18456;DHT22;9357;49.900;8.208;2023-08-30T00:26:56;17.00;99.90
18456;DHT22;9357;49.900;8.208;2023-08-30T00:28:29;17.00;99.90
18456;DHT22;9357;49.900;8.208;2023-08-30T00:30:01;17.00;99.90
18456;DHT22;9357;49.900;8.208;2023-08-30T00:31:34;17.00;99.90
18456;DHT22;9357;49.900;8.208;2023-08-30T00:33:06;17.00;99.90
18456;DHT22;9357;49.900;8.208;2023-08-30T00:34:39;17.00;99.90
18456;DHT22;9357;49.900;8.208;2023-08-30T00:36:11;17.00;99.90
18456;DHT22;9357;49.900;8.208;2023-08-30T00:37:44;17.00;99.90
18456;DHT22;9357;49.900;8.208;2023-08-30T00:39:18;17.00;99.90
18456;DHT22;9357;49.900;8.208;2023-08-30T00:40:50;16.90;99.90
18456;DHT22;9357;49.900;8.208;2023-08-30T00:42:22;16.90;99.90
18456;DHT22;9357;49.900;8.208;2023-08-30T00:43:55;16.90;99.90
18456;DHT22;9357;49.900;8.208;2023-08-30T00:45:27;17.00;99.90
18456;DHT22;9357;49.900;8.208;2023-08-30T00:47:00;16.90;99.90
18456;DHT22;9357;49.900;8.208;2023-08-30T00:48:33;16.90;99.90
18456;DHT22;9357;49.900;8.208;2023-08-30T00:50:06;16.90;99.90
18456;DHT22;9357;49.900;8.208;2023-08-30T00:51:39;17.00;99.90
18456;DHT22;9357;49.900;8.208;2023-08-30T00:53:11;16.90;99.90
18456;DHT22;9357;49.900;8.208;2023-08-30T00:54:46;16.90;99.90
18456;DHT22;9357;49.900;8.208;2023-08-30T00:56:19;16.90;99.90
18456;DHT22;9357;49.900;8.208;2023-08-30T00:57:52;16.90;99.90
18456;DHT22;9357;49.900;8.208;2023-08-30T00:59:24;16.90;99.90
18456;DHT22;9357;49.900;8.208;2023-08-30T01:00:57;16.90;99.90
18456;DHT22;9357;49.900;8.208;2023-08-30T01:02:30;16.80;99.90
18456;DHT22;9357;49.900;8.208;2023-08-30T01:04:03;16.80;99.90
18456;DHT22;9357;49.900;8.208;2023-08-30T01:05:35;16.80;99.90
18456;DHT22;9357;49.900;8.208;2023-08-30T01:07:08;16.80;99.90
18456;DHT22;9357;49.900;8.208;2023-08-30T01:08:41;16.80;99.90
18456;DHT22;9357;49.900;8.208;2023-08-30T01:10:15;16.80;99.90
18456;DHT22;9357;49.900;8.208;2023-08-30T01:11:53;16.80;99.90
18456;DHT22;9357;49.900;8.208;2023-08-30T01:13:30;16.70;99.90
18456;DHT22;9357;49.900;8.208;2023-08-30T01:15:09;16.70;99.90
18456;DHT22;9357;49.900;8.208;2023-08-30T01:16:42;16.70;99.90
18456;DHT22;9357;49.900;8.208;2023-08-30T01:18:18;16.60;99.90
18456;DHT22;9357;49.900;8.208;2023-08-30T01:19:54;16.70;99.90
18456;DHT22;9357;49.900;8.208;2023-08-30T01:21:36;16.70;99.90
18456;DHT22;9357;49.900;8.208;2023-08-30T01:23:19;16.70;99.90
18456;DHT22;9357;49.900;8.208;2023-08-30T01:25:00;16.70;99.90
18456;DHT22;9357;49.900;8.208;2023-08-30T01:26:41;16.70;99.90
18456;DHT22;9357;49.900;8.208;2023-08-30T01:28:19;16.70;99.90
18456;DHT22;9357;49.900;8.208;2023-08-30T01:29:54;16.70;99.90
18456;DHT22;9357;49.900;8.208;2023-08-30T01:31:29;16.70;99.90
18456;DHT22;9357;49.900;8.208;2023-08-30T01:33:02;16.70;99.90
18456;DHT22;9357;49.900;8.208;2023-08-30T01:34:37;16.70;99.90
18456;DHT22;9357;49.900;8.208;2023-08-30T01:36:10;16.70;99.90
18456;DHT22;9357;49.900;8.208;2023-08-30T01:37:44;16.70;99.90
18456;DHT22;9357;49.900;8.208;2023-08-30T01:39:17;16.70;99.90
18456;DHT22;9357;49.900;8.208;2023-08-30T01:40:52;16.70;99.90
18456;DHT22;9357;49.900;8.208;2023-08-30T01:42:25;16.70;99.90
18456;DHT22;9357;49.900;8.208;2023-08-30T01:43:59;16.70;99.90
18456;DHT22;9357;49.900;8.208;2023-08-30T01:45:36;16.70;99.90
18456;DHT22;9357;49.900;8.208;2023-08-30T01:47:11;16.70;99.90
18456;DHT22;9357;49.900;8.208;2023-08-30T01:48:43;16.70;99.90
18456;DHT22;9357;49.900;8.208;2023-08-30T01:50:17;16.70;99.90
18456;DHT22;9357;49.900;8.208;2023-08-30T01:51:49;16.70;99.90
18456;DHT22;9357;49.900;8.208;2023-08-30T01:53:22;16.60;99.90
18456;DHT22;9357;49.900;8.208;2023-08-30T01:54:54;16.60;99.90
18456;DHT22;9357;49.900;8.208;2023-08-30T01:56:27;16.60;99.90
18456;DHT22;9357;49.900;8.208;2023-08-30T01:57:59;16.60;99.90
18456;DHT22;9357;49.900;8.208;2023-08-30T01:59:33;16.60;99.90
18456;DHT22;9357;49.900;8.208;2023-08-30T02:01:05;16.60;99.90
18456;DHT22;9357;49.900;8.208;2023-08-30T02:02:38;16.60;99.90
18456;DHT22;9357;49.900;8.208;2023-08-30T02:04:10;16.60;99.90
18456;DHT22;9357;49.900;8.208;2023-08-30T02:05:52;16.60;99.90
18456;DHT22;9357;49.900;8.208;2023-08-30T02:07:40;16.60;99.90
18456;DHT22;9357;49.900;8.208;2023-08-30T02:09:21;16.60;99.90
18456;DHT22;9357;49.900;8.208;2023-08-30T02:10:56;16.50;99.90
18456;DHT22;9357;49.900;8.208;2023-08-30T02:12:42;16.60;99.90
18456;DHT22;9357;49.900;8.208;2023-08-30T02:14:15;16.60;99.90
18456;DHT22;9357;49.900;8.208;2023-08-30T02:15:51;16.60;99.90
18456;DHT22;9357;49.900;8.208;2023-08-30T02:17:24;16.60;99.90
18456;DHT22;9357;49.900;8.208;2023-08-30T02:18:57;16.60;99.90
18456;DHT22;9357;49.900;8.208;2023-08-30T02:20:29;16.60;99.90
18456;DHT22;9357;49.900;8.208;2023-08-30T02:22:01;16.60;99.90
18456;DHT22;9357;49.900;8.208;2023-08-30T02:23:34;16.50;99.90
18456;DHT22;9357;49.900;8.208;2023-08-30T02:25:08;16.50;99.90
18456;DHT22;9357;49.900;8.208;2023-08-30T02:26:40;16.50;99.90
18456;DHT22;9357;49.900;8.208;2023-08-30T02:28:13;16.50;99.90
18456;DHT22;9357;49.900;8.208;2023-08-30T02:29:44;16.50;99.90
18456;DHT22;9357;49.900;8.208;2023-08-30T02:31:18;16.40;99.90
18456;DHT22;9357;49.900;8.208;2023-08-30T02:32:50;16.40;99.90
18456;DHT22;9357;49.900;8.208;2023-08-30T02:34:23;16.40;99.90
18456;DHT22;9357;49.900;8.208;2023-08-30T02:35:55;16.30;99.90
18456;DHT22;9357;49.900;8.208;2023-08-30T02:37:28;16.20;99.90
18456;DHT22;9357;49.900;8.208;2023-08-30T02:38:59;16.20;99.90
18456;DHT22;9357;49.900;8.208;2023-08-30T02:40:32;16.20;99.90
18456;DHT22;9357;49.900;8.208;2023-08-30T02:42:04;16.20;99.90
18456;DHT22;9357;49.900;8.208;2023-08-30T02:43:37;16.20;99.90
18456;DHT22;9357;49.900;8.208;2023-08-30T02:45:10;16.20;99.90
18456;DHT22;9357;49.900;8.208;2023-08-30T02:46:43;16.20;99.90
18456;DHT22;9357;49.900;8.208;2023-08-30T02:48:15;16.20;99.90
18456;DHT22;9357;49.900;8.208;2023-08-30T02:49:47;16.10;99.90
18456;DHT22;9357;49.900;8.208;2023-08-30T02:51:20;16.20;99.90
18456;DHT22;9357;49.900;8.208;2023-08-30T02:52:52;16.20;99.90
18456;DHT22;9357;49.900;8.208;2023-08-30T02:54:24;16.20;99.90
18456;DHT22;9357;49.900;8.208;2023-08-30T02:55:56;16.20;99.90
18456;DHT22;9357;49.900;8.208;2023-08-30T02:57:29;16.20;99.90
18456;DHT22;9357;49.900;8.208;2023-08-30T02:59:00;16.10;99.90
18456;DHT22;9357;49.900;8.208;2023-08-30T03:00:33;16.10;99.90
18456;DHT22;9357;49.900;8.208;2023-08-30T03:02:07;16.10;99.90
18456;DHT22;9357;49.900;8.208;2023-08-30T03:03:40;16.10;99.90
18456;DHT22;9357;49.900;8.208;2023-08-30T03:05:11;16.10;99.90
18456;DHT22;9357;49.900;8.208;2023-08-30T03:06:44;16.20;99.90
18456;DHT22;9357;49.900;8.208;2023-08-30T03:08:16;16.20;99.90
18456;DHT22;9357;49.900;8.208;2023-08-30T03:09:52;16.20;99.90
18456;DHT22;9357;49.900;8.208;2023-08-30T03:11:24;16.20;99.90
18456;DHT22;9357;49.900;8.208;2023-08-30T03:12:57;16.10;99.90
18456;DHT22;9357;49.900;8.208;2023-08-30T03:14:29;16.20;99.90
18456;DHT22;9357;49.900;8.208;2023-08-30T03:16:01;16.20;99.90
18456;DHT22;9357;49.900;8.208;2023-08-30T03:17:35;16.20;99.90
18456;DHT22;9357;49.900;8.208;2023-08-30T03:19:07;16.20;99.90
18456;DHT22;9357;49.900;8.208;2023-08-30T03:20:39;16.20;99.90
18456;DHT22;9357;49.900;8.208;2023-08-30T03:22:12;16.20;99.90
18456;DHT22;9357;49.900;8.208;2023-08-30T03:23:44;16.20;99.90
18456;DHT22;9357;49.900;8.208;2023-08-30T03:25:16;16.20;99.90
18456;DHT22;9357;49.900;8.208;2023-08-30T03:26:48;16.20;99.90
18456;DHT22;9357;49.900;8.208;2023-08-30T03:28:21;16.20;99.90
18456;DHT22;9357;49.900;8.208;2023-08-30T03:29:54;16.20;99.90
18456;DHT22;9357;49.900;8.208;2023-08-30T03:31:27;16.30;99.90
18456;DHT22;9357;49.900;8.208;2023-08-30T03:33:00;16.30;99.90
18456;DHT22;9357;49.900;8.208;2023-08-30T03:34:33;16.30;99.90
18456;DHT22;9357;49.900;8.208;2023-08-30T03:36:05;16.30;99.90
18456;DHT22;9357;49.900;8.208;2023-08-30T03:37:38;16.30;99.90
18456;DHT22;9357;49.900;8.208;2023-08-30T03:39:10;16.20;99.90
18456;DHT22;9357;49.900;8.208;2023-08-30T03:40:44;16.20;99.90
18456;DHT22;9357;49.900;8.208;2023-08-30T03:42:15;16.30;99.90
18456;DHT22;9357;49.900;8.208;2023-08-30T03:43:48;16.30;99.90
18456;DHT22;9357;49.900;8.208;2023-08-30T03:45:21;16.30;99.90
18456;DHT22;9357;49.900;8.208;2023-08-30T03:46:53;16.20;99.90
18456;DHT22;9357;49.900;8.208;2023-08-30T03:48:29;16.20;99.90
18456;DHT22;9357;49.900;8.208;2023-08-30T03:50:01;16.20;99.90
18456;DHT22;9357;49.900;8.208;2023-08-30T03:51:34;16.20;99.90
18456;DHT22;9357;49.900;8.208;2023-08-30T03:53:06;16.20;99.90
18456;DHT22;9357;49.900;8.208;2023-08-30T03:54:39;16.20;99.90
18456;DHT22;9357;49.900;8.208;2023-08-30T03:56:11;16.20;99.90
18456;DHT22;9357;49.900;8.208;2023-08-30T03:57:43;16.20;99.90
18456;DHT22;9357;49.900;8.208;2023-08-30T03:59:16;16.20;99.90
18456;DHT22;9357;49.900;8.208;2023-08-30T04:00:48;16.10;99.90
18456;DHT22;9357;49.900;8.208;2023-08-30T04:02:21;16.20;99.90
18456;DHT22;9357;49.900;8.208;2023-08-30T04:03:54;16.20;99.90
18456;DHT22;9357;49.900;8.208;2023-08-30T04:05:27;16.10;99.90
18456;DHT22;9357;49.900;8.208;2023-08-30T04:06:59;16.20;99.90
18456;DHT22;9357;49.900;8.208;2023-08-30T04:08:32;16.10;99.90
18456;DHT22;9357;49.900;8.208;2023-08-30T04:10:05;16.10;99.90
18456;DHT22;9357;49.900;8.208;2023-08-30T04:11:38;16.20;99.90
18456;DHT22;9357;49.900;8.208;2023-08-30T04:13:10;16.20;99.90
18456;DHT22;9357;49.900;8.208;2023-08-30T04:14:43;16.20;99.90
18456;DHT22;9357;49.900;8.208;2023-08-30T04:16:15;16.20;99.90
18456;DHT22;9357;49.900;8.208;2023-08-30T04:17:48;16.10;99.90
18456;DHT22;9357;49.900;8.208;2023-08-30T04:19:21;16.20;99.90
18456;DHT22;9357;49.900;8.208;2023-08-30T04:20:54;16.20;99.90
18456;DHT22;9357;49.900;8.208;2023-08-30T04:22:26;16.20;99.90
18456;DHT22;9357;49.900;8.208;2023-08-30T04:23:58;16.20;99.90
18456;DHT22;9357;49.900;8.208;2023-08-30T04:25:33;16.20;99.90
18456;DHT22;9357;49.900;8.208;2023-08-30T04:27:05;16.10;99.90
18456;DHT22;9357;49.900;8.208;2023-08-30T04:28:38;16.10;99.90
18456;DHT22;9357;49.900;8.208;2023-08-30T04:30:11;16.20;99.90
18456;DHT22;9357;49.900;8.208;2023-08-30T04:31:44;16.10;99.90
18456;DHT22;9357;49.900;8.208;2023-08-30T04:33:16;16.10;99.90
18456;DHT22;9357;49.900;8.208;2023-08-30T04:34:49;16.10;99.90
18456;DHT22;9357;49.900;8.208;2023-08-30T04:36:22;16.20;99.90
18456;DHT22;9357;49.900;8.208;2023-08-30T04:37:54;16.10;99.90
18456;DHT22;9357;49.900;8.208;2023-08-30T04:39:27;16.10;99.90
18456;DHT22;9357;49.900;8.208;2023-08-30T04:40:59;16.10;99.90
18456;DHT22;9357;49.900;8.208;2023-08-30T04:42:32;16.10;99.90
18456;DHT22;9357;49.900;8.208;2023-08-30T04:44:04;16.10;99.90
18456;DHT22;9357;49.900;8.208;2023-08-30T04:45:37;16.00;99.90
18456;DHT22;9357;49.900;8.208;2023-08-30T04:47:09;16.10;99.90
18456;DHT22;9357;49.900;8.208;2023-08-30T04:48:41;16.00;99.90
18456;DHT22;9357;49.900;8.208;2023-08-30T04:50:14;16.00;99.90
18456;DHT22;9357;49.900;8.208;2023-08-30T04:51:48;16.00;99.90
18456;DHT22;9357;49.900;8.208;2023-08-30T04:53:21;16.00;99.90
18456;DHT22;9357;49.900;8.208;2023-08-30T04:54:53;16.00;99.90
18456;DHT22;9357;49.900;8.208;2023-08-30T04:56:26;16.00;99.90
18456;DHT22;9357;49.900;8.208;2023-08-30T04:57:58;16.00;99.90
18456;DHT22;9357;49.900;8.208;2023-08-30T04:59:30;16.00;99.90
18456;DHT22;9357;49.900;8.208;2023-08-30T05:01:03;16.00;99.90
18456;DHT22;9357;49.900;8.208;2023-08-30T05:02:35;16.00;99.90
18456;DHT22;9357;49.900;8.208;2023-08-30T05:04:08;16.00;99.90
18456;DHT22;9357;49.900;8.208;2023-08-30T05:05:45;16.00;99.90
18456;DHT22;9357;49.900;8.208;2023-08-30T05:07:17;15.90;99.90
18456;DHT22;9357;49.900;8.208;2023-08-30T05:08:51;15.90;99.90
18456;DHT22;9357;49.900;8.208;2023-08-30T05:10:23;15.90;99.90
18456;DHT22;9357;49.900;8.208;2023-08-30T05:11:55;16.00;99.90
18456;DHT22;9357;49.900;8.208;2023-08-30T05:13:28;15.90;99.90
18456;DHT22;9357;49.900;8.208;2023-08-30T05:15:00;15.90;99.90
18456;DHT22;9357;49.900;8.208;2023-08-30T05:16:32;15.90;99.90
18456;DHT22;9357;49.900;8.208;2023-08-30T05:18:06;15.90;99.90
18456;DHT22;9357;49.900;8.208;2023-08-30T05:19:39;15.90;99.90
18456;DHT22;9357;49.900;8.208;2023-08-30T05:21:13;15.90;99.90
18456;DHT22;9357;49.900;8.208;2023-08-30T05:22:45;15.90;99.90
18456;DHT22;9357;49.900;8.208;2023-08-30T05:24:17;15.90;99.90
18456;DHT22;9357;49.900;8.208;2023-08-30T05:25:49;15.90;99.90
18456;DHT22;9357;49.900;8.208;2023-08-30T05:27:22;16.00;99.90
18456;DHT22;9357;49.900;8.208;2023-08-30T05:28:54;16.00;99.90
18456;DHT22;9357;49.900;8.208;2023-08-30T05:30:27;16.00;99.90
18456;DHT22;9357;49.900;8.208;2023-08-30T05:31:59;16.00;99.90
18456;DHT22;9357;49.900;8.208;2023-08-30T05:33:32;16.00;99.90
18456;DHT22;9357;49.900;8.208;2023-08-30T05:35:04;16.00;99.90
18456;DHT22;9357;49.900;8.208;2023-08-30T05:36:38;16.00;99.90
18456;DHT22;9357;49.900;8.208;2023-08-30T05:38:10;16.00;99.90
18456;DHT22;9357;49.900;8.208;2023-08-30T05:39:43;16.00;99.90
18456;DHT22;9357;49.900;8.208;2023-08-30T05:41:15;16.00;99.90
18456;DHT22;9357;49.900;8.208;2023-08-30T05:42:47;16.00;99.90
18456;DHT22;9357;49.900;8.208;2023-08-30T05:44:19;16.00;99.90
18456;DHT22;9357;49.900;8.208;2023-08-30T05:45:52;16.00;99.90
18456;DHT22;9357;49.900;8.208;2023-08-30T05:47:24;16.00;99.90
18456;DHT22;9357;49.900;8.208;2023-08-30T05:48:57;16.00;99.90
18456;DHT22;9357;49.900;8.208;2023-08-30T05:50:29;16.00;99.90
18456;DHT22;9357;49.900;8.208;2023-08-30T05:52:03;16.00;99.90
18456;DHT22;9357;49.900;8.208;2023-08-30T05:53:35;16.10;99.90
18456;DHT22;9357;49.900;8.208;2023-08-30T05:55:08;16.00;99.90
18456;DHT22;9357;49.900;8.208;2023-08-30T05:56:41;16.10;99.90
18456;DHT22;9357;49.900;8.208;2023-08-30T05:58:14;16.10;99.90
18456;DHT22;9357;49.900;8.208;2023-08-30T05:59:47;16.10;99.90
18456;DHT22;9357;49.900;8.208;2023-08-30T06:01:20;16.10;99.90
18456;DHT22;9357;49.900;8.208;2023-08-30T06:02:51;16.10;99.90
18456;DHT22;9357;49.900;8.208;2023-08-30T06:04:24;16.20;99.90
18456;DHT22;9357;49.900;8.208;2023-08-30T06:05:56;16.20;99.90
18456;DHT22;9357;49.900;8.208;2023-08-30T06:07:30;16.10;99.90
18456;DHT22;9357;49.900;8.208;2023-08-30T06:09:02;16.20;99.90
18456;DHT22;9357;49.900;8.208;2023-08-30T06:10:36;16.20;99.90
18456;DHT22;9357;49.900;8.208;2023-08-30T06:12:08;16.20;99.90
18456;DHT22;9357;49.900;8.208;2023-08-30T06:13:41;16.20;99.90
18456;DHT22;9357;49.900;8.208;2023-08-30T06:15:13;16.20;99.90
18456;DHT22;9357;49.900;8.208;2023-08-30T06:16:46;16.30;99.90
18456;DHT22;9357;49.900;8.208;2023-08-30T06:18:17;16.30;99.90
18456;DHT22;9357;49.900;8.208;2023-08-30T06:19:50;16.30;99.90
18456;DHT22;9357;49.900;8.208;2023-08-30T06:21:23;16.30;99.90
18456;DHT22;9357;49.900;8.208;2023-08-30T06:22:57;16.30;99.90
18456;DHT22;9357;49.900;8.208;2023-08-30T06:24:30;16.40;99.90
18456;DHT22;9357;49.900;8.208;2023-08-30T06:26:03;16.40;99.90
18456;DHT22;9357;49.900;8.208;2023-08-30T06:27:41;16.40;99.90
18456;DHT22;9357;49.900;8.208;2023-08-30T06:29:14;16.40;99.90
18456;DHT22;9357;49.900;8.208;2023-08-30T06:30:46;16.40;99.90
18456;DHT22;9357;49.900;8.208;2023-08-30T06:32:19;16.40;99.90
18456;DHT22;9357;49.900;8.208;2023-08-30T06:33:50;16.50;99.90
18456;DHT22;9357;49.900;8.208;2023-08-30T06:35:23;16.50;99.90
18456;DHT22;9357;49.900;8.208;2023-08-30T06:36:55;16.60;99.90
18456;DHT22;9357;49.900;8.208;2023-08-30T06:38:29;16.60;99.90
18456;DHT22;9357;49.900;8.208;2023-08-30T06:40:01;16.60;99.90
18456;DHT22;9357;49.900;8.208;2023-08-30T06:41:35;16.60;99.90
18456;DHT22;9357;49.900;8.208;2023-08-30T06:43:08;16.70;99.90
18456;DHT22;9357;49.900;8.208;2023-08-30T06:44:40;16.70;99.90
18456;DHT22;9357;49.900;8.208;2023-08-30T06:46:13;16.70;99.90
18456;DHT22;9357;49.900;8.208;2023-08-30T06:47:45;16.80;99.90
18456;DHT22;9357;49.900;8.208;2023-08-30T06:49:18;16.80;99.90
18456;DHT22;9357;49.900;8.208;2023-08-30T06:50:50;16.90;99.90
18456;DHT22;9357;49.900;8.208;2023-08-30T06:52:23;16.90;99.90
18456;DHT22;9357;49.900;8.208;2023-08-30T06:53:56;16.90;99.90
18456;DHT22;9357;49.900;8.208;2023-08-30T06:55:32;16.90;99.90
18456;DHT22;9357;49.900;8.208;2023-08-30T06:57:05;16.90;99.90
18456;DHT22;9357;49.900;8.208;2023-08-30T06:58:38;16.90;99.90
18456;DHT22;9357;49.900;8.208;2023-08-30T07:00:11;17.00;99.90
18456;DHT22;9357;49.900;8.208;2023-08-30T07:01:43;17.00;99.90
18456;DHT22;9357;49.900;8.208;2023-08-30T07:03:16;17.00;99.90
18456;DHT22;9357;49.900;8.208;2023-08-30T07:04:48;17.00;99.90
18456;DHT22;9357;49.900;8.208;2023-08-30T07:06:21;17.10;99.90
18456;DHT22;9357;49.900;8.208;2023-08-30T07:07:53;17.10;99.90
18456;DHT22;9357;49.900;8.208;2023-08-30T07:09:27;17.20;99.90
18456;DHT22;9357;49.900;8.208;2023-08-30T07:11:00;17.20;99.90
18456;DHT22;9357;49.900;8.208;2023-08-30T07:12:32;17.20;99.90
18456;DHT22;9357;49.900;8.208;2023-08-30T07:14:04;17.20;99.90
18456;DHT22;9357;49.900;8.208;2023-08-30T07:15:38;17.20;99.90
18456;DHT22;9357;49.900;8.208;2023-08-30T07:17:11;17.30;99.90
18456;DHT22;9357;49.900;8.208;2023-08-30T07:18:44;17.30;99.90
18456;DHT22;9357;49.900;8.208;2023-08-30T07:20:17;17.30;99.90
18456;DHT22;9357;49.900;8.208;2023-08-30T07:21:49;17.40;99.90
18456;DHT22;9357;49.900;8.208;2023-08-30T07:23:21;17.40;99.90
18456;DHT22;9357;49.900;8.208;2023-08-30T07:24:54;17.50;99.90
18456;DHT22;9357;49.900;8.208;2023-08-30T07:26:27;17.50;99.90
18456;DHT22;9357;49.900;8.208;2023-08-30T07:28:00;17.60;99.90
18456;DHT22;9357;49.900;8.208;2023-08-30T07:29:32;17.60;99.90
18456;DHT22;9357;49.900;8.208;2023-08-30T07:31:05;17.60;99.90
18456;DHT22;9357;49.900;8.208;2023-08-30T07:32:37;17.70;99.90
18456;DHT22;9357;49.900;8.208;2023-08-30T07:34:10;17.70;99.90
18456;DHT22;9357;49.900;8.208;2023-08-30T07:35:41;17.80;99.90
18456;DHT22;9357;49.900;8.208;2023-08-30T07:37:18;17.80;99.90
18456;DHT22;9357;49.900;8.208;2023-08-30T07:38:50;17.90;99.90
18456;DHT22;9357;49.900;8.208;2023-08-30T07:40:24;18.00;99.90
18456;DHT22;9357;49.900;8.208;2023-08-30T07:46:24;19.50;99.90
18456;DHT22;9357;49.900;8.208;2023-08-30T07:47:57;19.80;99.90
18456;DHT22;9357;49.900;8.208;2023-08-30T07:49:29;19.80;99.90
18456;DHT22;9357;49.900;8.208;2023-08-30T07:51:02;19.70;99.90
18456;DHT22;9357;49.900;8.208;2023-08-30T07:52:34;19.60;99.90
18456;DHT22;9357;49.900;8.208;2023-08-30T07:54:16;19.40;99.90
18456;DHT22;9357;49.900;8.208;2023-08-30T07:55:49;19.40;99.90
18456;DHT22;9357;49.900;8.208;2023-08-30T07:57:21;19.10;99.90
18456;DHT22;9357;49.900;8.208;2023-08-30T07:58:54;19.10;99.90
18456;DHT22;9357;49.900;8.208;2023-08-30T08:00:26;19.00;99.90
18456;DHT22;9357;49.900;8.208;2023-08-30T08:02:00;18.90;99.90
18456;DHT22;9357;49.900;8.208;2023-08-30T08:03:36;18.90;99.90
18456;DHT22;9357;49.900;8.208;2023-08-30T08:05:16;18.90;99.90
18456;DHT22;9357;49.900;8.208;2023-08-30T08:06:49;18.90;99.90
18456;DHT22;9357;49.900;8.208;2023-08-30T08:08:27;18.90;99.90
18456;DHT22;9357;49.900;8.208;2023-08-30T08:10:00;18.90;99.90
18456;DHT22;9357;49.900;8.208;2023-08-30T08:11:32;18.90;99.90
18456;DHT22;9357;49.900;8.208;2023-08-30T08:13:05;18.90;99.90
18456;DHT22;9357;49.900;8.208;2023-08-30T08:14:38;18.90;99.90
18456;DHT22;9357;49.900;8.208;2023-08-30T08:16:11;18.90;99.90
18456;DHT22;9357;49.900;8.208;2023-08-30T08:17:46;19.00;99.90
18456;DHT22;9357;49.900;8.208;2023-08-30T08:19:18;18.90;99.90
18456;DHT22;9357;49.900;8.208;2023-08-30T08:20:55;18.90;99.90
18456;DHT22;9357;49.900;8.208;2023-08-30T08:22:28;18.90;99.90
18456;DHT22;9357;49.900;8.208;2023-08-30T08:24:01;19.00;99.90
18456;DHT22;9357;49.900;8.208;2023-08-30T08:25:34;19.20;99.90
18456;DHT22;9357;49.900;8.208;2023-08-30T08:27:06;19.20;99.90
18456;DHT22;9357;49.900;8.208;2023-08-30T08:28:38;19.30;99.90
18456;DHT22;9357;49.900;8.208;2023-08-30T08:30:11;19.40;99.90
18456;DHT22;9357;49.900;8.208;2023-08-30T08:31:44;19.60;99.90
18456;DHT22;9357;49.900;8.208;2023-08-30T08:33:18;19.60;99.90
18456;DHT22;9357;49.900;8.208;2023-08-30T08:34:50;19.60;99.90
18456;DHT22;9357;49.900;8.208;2023-08-30T08:36:23;19.70;99.90
18456;DHT22;9357;49.900;8.208;2023-08-30T08:37:55;19.70;99.90
18456;DHT22;9357;49.900;8.208;2023-08-30T08:39:28;19.70;99.90
18456;DHT22;9357;49.900;8.208;2023-08-30T08:41:02;19.80;99.90
18456;DHT22;9357;49.900;8.208;2023-08-30T08:42:36;19.80;99.90
18456;DHT22;9357;49.900;8.208;2023-08-30T08:44:09;19.90;99.90
18456;DHT22;9357;49.900;8.208;2023-08-30T08:45:41;19.90;99.90
18456;DHT22;9357;49.900;8.208;2023-08-30T08:47:16;20.00;99.90
18456;DHT22;9357;49.900;8.208;2023-08-30T08:48:50;20.00;99.90
18456;DHT22;9357;49.900;8.208;2023-08-30T08:50:23;20.00;99.90
18456;DHT22;9357;49.900;8.208;2023-08-30T08:51:56;20.00;99.90
18456;DHT22;9357;49.900;8.208;2023-08-30T08:53:29;20.10;99.90
18456;DHT22;9357;49.900;8.208;2023-08-30T08:55:02;20.10;99.90
18456;DHT22;9357;49.900;8.208;2023-08-30T08:56:35;20.20;99.90
18456;DHT22;9357;49.900;8.208;2023-08-30T08:58:08;20.30;99.90
18456;DHT22;9357;49.900;8.208;2023-08-30T08:59:40;20.30;99.90
18456;DHT22;9357;49.900;8.208;2023-08-30T09:01:13;20.40;99.90
18456;DHT22;9357;49.900;8.208;2023-08-30T09:03:05;20.50;99.90
18456;DHT22;9357;49.900;8.208;2023-08-30T09:04:41;20.70;99.90
18456;DHT22;9357;49.900;8.208;2023-08-30T09:06:13;20.90;99.90
18456;DHT22;9357;49.900;8.208;2023-08-30T09:07:47;21.10;99.90
18456;DHT22;9357;49.900;8.208;2023-08-30T09:09:19;21.30;99.90
18456;DHT22;9357;49.900;8.208;2023-08-30T09:10:53;21.50;99.90
18456;DHT22;9357;49.900;8.208;2023-08-30T09:12:25;21.70;99.90
18456;DHT22;9357;49.900;8.208;2023-08-30T09:13:58;21.80;99.90
18456;DHT22;9357;49.900;8.208;2023-08-30T09:15:33;22.00;99.90
18456;DHT22;9357;49.900;8.208;2023-08-30T09:17:06;22.10;99.90
18456;DHT22;9357;49.900;8.208;2023-08-30T09:18:38;22.40;99.90
18456;DHT22;9357;49.900;8.208;2023-08-30T09:20:18;22.50;99.90
18456;DHT22;9357;49.900;8.208;2023-08-30T09:21:52;22.60;99.90
18456;DHT22;9357;49.900;8.208;2023-08-30T09:23:25;22.80;99.90
18456;DHT22;9357;49.900;8.208;2023-08-30T09:24:57;22.80;99.90
18456;DHT22;9357;49.900;8.208;2023-08-30T09:26:32;23.00;99.90
18456;DHT22;9357;49.900;8.208;2023-08-30T09:28:06;23.20;99.90
18456;DHT22;9357;49.900;8.208;2023-08-30T09:29:38;23.30;99.90
18456;DHT22;9357;49.900;8.208;2023-08-30T09:31:17;23.40;99.90
18456;DHT22;9357;49.900;8.208;2023-08-30T09:32:54;23.60;99.90
18456;DHT22;9357;49.900;8.208;2023-08-30T09:34:27;23.70;99.90
18456;DHT22;9357;49.900;8.208;2023-08-30T09:36:00;23.60;99.90
18456;DHT22;9357;49.900;8.208;2023-08-30T09:37:33;23.80;99.90
18456;DHT22;9357;49.900;8.208;2023-08-30T09:39:08;23.90;99.90
18456;DHT22;9357;49.900;8.208;2023-08-30T09:40:41;23.80;99.90
18456;DHT22;9357;49.900;8.208;2023-08-30T09:42:16;24.00;99.90
18456;DHT22;9357;49.900;8.208;2023-08-30T09:43:49;24.10;99.90
18456;DHT22;9357;49.900;8.208;2023-08-30T09:45:31;24.20;99.90
18456;DHT22;9357;49.900;8.208;2023-08-30T09:47:04;24.20;99.90
18456;DHT22;9357;49.900;8.208;2023-08-30T09:48:37;24.30;99.90
18456;DHT22;9357;49.900;8.208;2023-08-30T09:50:11;24.20;99.90
18456;DHT22;9357;49.900;8.208;2023-08-30T09:51:47;24.40;99.90
18456;DHT22;9357;49.900;8.208;2023-08-30T09:53:21;24.60;99.90
18456;DHT22;9357;49.900;8.208;2023-08-30T09:54:57;24.60;99.90
18456;DHT22;9357;49.900;8.208;2023-08-30T09:56:31;24.60;99.90
18456;DHT22;9357;49.900;8.208;2023-08-30T09:58:04;24.60;99.90
18456;DHT22;9357;49.900;8.208;2023-08-30T09:59:38;24.60;99.90
18456;DHT22;9357;49.900;8.208;2023-08-30T10:01:10;24.70;99.90
18456;DHT22;9357;49.900;8.208;2023-08-30T10:02:43;24.80;99.90